Portada
METAR-TAF:

METAR-TAF

Aeropuertos :

Aeropuerto de Oporto-Francisco Sá Carneiro

Oporto, Portugal

latitud: 41-14N, longitud: 008-41W, altitud: 69 m

Observación

El informe se hizo hace 39 minutos, a las 13:30 UTC
Viento 10 kt del este
Temperatura 20°C
Humedad 37%
Presión 1025 hPa
Visibilidad 10 km o más
sin nubes por debajo de 1500 m y sin presencia de cumulonimbus.

METAR: LPPR 101330Z 10010KT CAVOK 20/05 Q1025

Hora: 14:09 (14:09 UTC)

Pronóstico

El informe se hizo hace 3 horas y 9 minutos, a las 11:00 UTC
Pronóstico válido del 10 a las 12 UTC al 11 a las 12 UTC
Viento 8 kt del este
Visibilidad 10 km o más
sin nubes por debajo de 1500 m y sin presencia de cumulonimbus.
Probabilidad 30% :
Temporalmente
del 10 a las 18 UTC al 10 a las 24 UTC
Visibilidad: 3000 m
Nubes dispersas a una altura de 300 ft
neblina

TAF: LPPR 101100Z 1012/1112 10008KT CAVOK PROB30 TEMPO 1018/1024 3000 BR SCT003

Observaciones y pronósticos meteorológicos de más de 4000 aeropuertos (mensajes METAR y TAF).

Los puntos amarillos y rojos representan las estaciones disponibles.

Ponga el ratón en el punto deseado para ver el nombre de la estación.

Haga clic para ver las observaciones y los pronósticos meteorológicos.

Para cambiar el mapa : haga clic en los botones verdes con una cruz de color negro para hacer un zoom, en el botón verde con un guión para alejar o en las flechas verdes para mapas adyacentes.


METAR-TAF: